sensor_id;sensor_type;location;lat;lon;timestamp;pressure;altitude;pressure_sealevel;temperature;humidity
48364;BME280;34170;54.364;18.582;2024-02-23T00:00:12;97668.94;;;8.69;100.00
48364;BME280;34170;54.364;18.582;2024-02-23T00:03:00;97688.06;;;8.59;100.00
48364;BME280;34170;54.364;18.582;2024-02-23T00:05:28;97688.00;;;8.52;100.00
48364;BME280;34170;54.364;18.582;2024-02-23T00:07:56;97681.72;;;8.67;100.00
48364;BME280;34170;54.364;18.582;2024-02-23T00:10:23;97676.34;;;8.67;100.00
48364;BME280;34170;54.364;18.582;2024-02-23T00:12:51;97669.84;;;9.18;100.00
48364;BME280;34170;54.364;18.582;2024-02-23T00:15:19;97672.19;;;8.57;100.00
48364;BME280;34170;54.364;18.582;2024-02-23T00:17:46;97661.34;;;8.66;100.00
48364;BME280;34170;54.364;18.582;2024-02-23T00:20:14;97648.28;;;8.56;100.00
48364;BME280;34170;54.364;18.582;2024-02-23T00:22:43;97649.00;;;9.26;100.00
48364;BME280;34170;54.364;18.582;2024-02-23T00:25:10;97636.53;;;8.57;100.00
48364;BME280;34170;54.364;18.582;2024-02-23T00:27:38;97633.31;;;8.68;100.00
48364;BME280;34170;54.364;18.582;2024-02-23T00:30:07;97639.66;;;8.67;100.00
48364;BME280;34170;54.364;18.582;2024-02-23T00:32:35;97631.75;;;8.87;100.00
48364;BME280;34170;54.364;18.582;2024-02-23T00:35:02;97639.03;;;8.58;100.00
48364;BME280;34170;54.364;18.582;2024-02-23T00:37:30;97639.22;;;8.99;100.00
48364;BME280;34170;54.364;18.582;2024-02-23T00:40:03;97643.22;;;8.74;100.00
48364;BME280;34170;54.364;18.582;2024-02-23T00:42:31;97641.16;;;8.70;100.00
48364;BME280;34170;54.364;18.582;2024-02-23T00:44:59;97638.53;;;8.83;100.00
48364;BME280;34170;54.364;18.582;2024-02-23T00:47:27;97633.00;;;8.91;100.00
48364;BME280;34170;54.364;18.582;2024-02-23T00:49:55;97627.13;;;8.74;100.00
48364;BME280;34170;54.364;18.582;2024-02-23T00:52:23;97611.28;;;8.80;100.00
48364;BME280;34170;54.364;18.582;2024-02-23T00:54:50;97613.06;;;8.59;100.00
48364;BME280;34170;54.364;18.582;2024-02-23T00:57:18;97612.91;;;8.74;100.00
48364;BME280;34170;54.364;18.582;2024-02-23T00:59:53;97623.81;;;8.66;100.00
48364;BME280;34170;54.364;18.582;2024-02-23T01:02:21;97617.03;;;8.70;100.00
48364;BME280;34170;54.364;18.582;2024-02-23T01:04:49;97623.72;;;8.87;100.00
48364;BME280;34170;54.364;18.582;2024-02-23T01:07:16;97613.06;;;9.07;100.00
48364;BME280;34170;54.364;18.582;2024-02-23T01:09:44;97620.63;;;8.49;100.00
48364;BME280;34170;54.364;18.582;2024-02-23T01:12:12;97606.13;;;8.78;100.00
48364;BME280;34170;54.364;18.582;2024-02-23T01:14:40;97608.03;;;8.84;100.00
48364;BME280;34170;54.364;18.582;2024-02-23T01:17:07;97594.50;;;9.06;100.00
48364;BME280;34170;54.364;18.582;2024-02-23T01:19:35;97601.06;;;8.96;100.00
48364;BME280;34170;54.364;18.582;2024-02-23T01:22:03;97597.03;;;8.72;100.00
48364;BME280;34170;54.364;18.582;2024-02-23T01:24:31;97586.94;;;8.74;100.00
48364;BME280;34170;54.364;18.582;2024-02-23T01:26:58;97585.75;;;8.77;100.00
48364;BME280;34170;54.364;18.582;2024-02-23T01:29:26;97588.75;;;9.15;100.00
48364;BME280;34170;54.364;18.582;2024-02-23T01:31:54;97581.91;;;9.00;100.00
48364;BME280;34170;54.364;18.582;2024-02-23T01:34:21;97583.78;;;9.06;100.00
48364;BME280;34170;54.364;18.582;2024-02-23T01:36:50;97574.88;;;8.99;100.00
48364;BME280;34170;54.364;18.582;2024-02-23T01:39:17;97588.56;;;8.62;100.00
48364;BME280;34170;54.364;18.582;2024-02-23T01:41:45;97590.47;;;8.82;100.00
48364;BME280;34170;54.364;18.582;2024-02-23T01:44:13;97577.00;;;8.62;100.00
48364;BME280;34170;54.364;18.582;2024-02-23T01:46:43;97570.03;;;8.32;100.00
48364;BME280;34170;54.364;18.582;2024-02-23T01:49:12;97569.94;;;8.47;100.00
48364;BME280;34170;54.364;18.582;2024-02-23T01:51:40;97570.91;;;8.39;100.00
48364;BME280;34170;54.364;18.582;2024-02-23T01:54:08;97573.06;;;8.57;100.00
48364;BME280;34170;54.364;18.582;2024-02-23T01:56:36;97573.22;;;8.97;100.00
48364;BME280;34170;54.364;18.582;2024-02-23T01:59:07;97567.44;;;8.87;100.00
48364;BME280;34170;54.364;18.582;2024-02-23T02:01:38;97573.53;;;8.33;100.00
48364;BME280;34170;54.364;18.582;2024-02-23T02:04:05;97556.03;;;8.37;100.00
48364;BME280;34170;54.364;18.582;2024-02-23T02:06:33;97570.31;;;8.86;100.00
48364;BME280;34170;54.364;18.582;2024-02-23T02:09:02;97570.91;;;8.81;100.00
48364;BME280;34170;54.364;18.582;2024-02-23T02:11:29;97570.88;;;8.68;100.00
48364;BME280;34170;54.364;18.582;2024-02-23T02:13:57;97583.91;;;8.84;100.00
48364;BME280;34170;54.364;18.582;2024-02-23T02:16:25;97571.94;;;8.80;100.00
48364;BME280;34170;54.364;18.582;2024-02-23T02:18:52;97584.09;;;8.41;100.00
48364;BME280;34170;54.364;18.582;2024-02-23T02:21:20;97576.25;;;8.81;100.00
48364;BME280;34170;54.364;18.582;2024-02-23T02:23:52;97568.28;;;8.46;100.00
48364;BME280;34170;54.364;18.582;2024-02-23T02:26:20;97573.16;;;8.77;100.00
48364;BME280;34170;54.364;18.582;2024-02-23T02:28:47;97573.41;;;8.89;100.00
48364;BME280;34170;54.364;18.582;2024-02-23T02:31:15;97568.19;;;8.74;100.00
48364;BME280;34170;54.364;18.582;2024-02-23T02:33:43;97564.75;;;8.87;100.00
48364;BME280;34170;54.364;18.582;2024-02-23T02:36:11;97567.28;;;8.54;100.00
48364;BME280;34170;54.364;18.582;2024-02-23T02:38:39;97580.25;;;8.50;100.00
48364;BME280;34170;54.364;18.582;2024-02-23T02:41:08;97573.03;;;8.44;100.00
48364;BME280;34170;54.364;18.582;2024-02-23T02:43:36;97565.63;;;8.46;100.00
48364;BME280;34170;54.364;18.582;2024-02-23T02:46:04;97571.72;;;8.82;100.00
48364;BME280;34170;54.364;18.582;2024-02-23T02:48:31;97573.34;;;8.69;100.00
48364;BME280;34170;54.364;18.582;2024-02-23T02:50:59;97573.22;;;8.49;100.00
48364;BME280;34170;54.364;18.582;2024-02-23T02:53:27;97579.28;;;8.65;100.00
48364;BME280;34170;54.364;18.582;2024-02-23T02:55:55;97573.75;;;8.38;100.00
48364;BME280;34170;54.364;18.582;2024-02-23T02:58:22;97581.53;;;9.09;100.00
48364;BME280;34170;54.364;18.582;2024-02-23T03:00:50;97581.25;;;8.49;100.00
48364;BME280;34170;54.364;18.582;2024-02-23T03:03:17;97569.59;;;8.64;100.00
48364;BME280;34170;54.364;18.582;2024-02-23T03:05:45;97562.44;;;8.77;100.00
48364;BME280;34170;54.364;18.582;2024-02-23T03:08:13;97547.53;;;8.55;100.00
48364;BME280;34170;54.364;18.582;2024-02-23T03:10:41;97553.34;;;8.72;100.00
48364;BME280;34170;54.364;18.582;2024-02-23T03:13:08;97570.66;;;8.76;100.00
48364;BME280;34170;54.364;18.582;2024-02-23T03:15:36;97563.25;;;8.78;100.00
48364;BME280;34170;54.364;18.582;2024-02-23T03:18:03;97556.84;;;8.66;100.00
48364;BME280;34170;54.364;18.582;2024-02-23T03:20:31;97567.25;;;8.95;100.00
48364;BME280;34170;54.364;18.582;2024-02-23T03:22:59;97576.59;;;8.65;100.00
48364;BME280;34170;54.364;18.582;2024-02-23T03:25:28;97568.63;;;8.78;100.00
48364;BME280;34170;54.364;18.582;2024-02-23T03:27:56;97553.38;;;8.78;100.00
48364;BME280;34170;54.364;18.582;2024-02-23T03:30:24;97565.50;;;8.74;100.00
48364;BME280;34170;54.364;18.582;2024-02-23T03:32:51;97563.59;;;8.55;100.00
48364;BME280;34170;54.364;18.582;2024-02-23T03:35:19;97565.66;;;8.59;100.00
48364;BME280;34170;54.364;18.582;2024-02-23T03:37:46;97567.38;;;8.74;100.00
48364;BME280;34170;54.364;18.582;2024-02-23T03:40:14;97566.22;;;8.96;100.00
48364;BME280;34170;54.364;18.582;2024-02-23T03:42:42;97562.66;;;8.41;100.00
48364;BME280;34170;54.364;18.582;2024-02-23T03:45:10;97584.66;;;8.65;100.00
48364;BME280;34170;54.364;18.582;2024-02-23T03:47:38;97583.28;;;8.82;100.00
48364;BME280;34170;54.364;18.582;2024-02-23T03:50:07;97575.50;;;9.01;100.00
48364;BME280;34170;54.364;18.582;2024-02-23T03:52:35;97587.31;;;9.13;100.00
48364;BME280;34170;54.364;18.582;2024-02-23T03:55:03;97594.25;;;8.94;100.00
48364;BME280;34170;54.364;18.582;2024-02-23T03:57:31;97588.50;;;8.97;100.00
48364;BME280;34170;54.364;18.582;2024-02-23T03:59:58;97590.06;;;8.78;100.00
48364;BME280;34170;54.364;18.582;2024-02-23T04:02:26;97588.41;;;8.77;100.00
48364;BME280;34170;54.364;18.582;2024-02-23T04:04:54;97597.81;;;8.59;100.00
48364;BME280;34170;54.364;18.582;2024-02-23T04:07:22;97596.38;;;9.19;100.00
48364;BME280;34170;54.364;18.582;2024-02-23T04:09:49;97603.28;;;8.86;100.00
48364;BME280;34170;54.364;18.582;2024-02-23T04:12:22;97604.88;;;8.74;100.00
48364;BME280;34170;54.364;18.582;2024-02-23T04:14:50;97598.09;;;8.78;100.00
48364;BME280;34170;54.364;18.582;2024-02-23T04:17:17;97604.09;;;8.80;100.00
48364;BME280;34170;54.364;18.582;2024-02-23T04:19:45;97607.22;;;8.84;100.00
48364;BME280;34170;54.364;18.582;2024-02-23T04:22:12;97603.41;;;9.26;100.00
48364;BME280;34170;54.364;18.582;2024-02-23T04:24:41;97613.19;;;8.86;100.00
48364;BME280;34170;54.364;18.582;2024-02-23T04:27:08;97614.00;;;8.86;100.00
48364;BME280;34170;54.364;18.582;2024-02-23T04:29:36;97620.22;;;8.93;100.00
48364;BME280;34170;54.364;18.582;2024-02-23T04:32:04;97628.88;;;8.95;100.00
48364;BME280;34170;54.364;18.582;2024-02-23T04:34:32;97616.47;;;9.49;100.00
48364;BME280;34170;54.364;18.582;2024-02-23T04:37:00;97619.44;;;9.00;100.00
48364;BME280;34170;54.364;18.582;2024-02-23T04:39:27;97617.88;;;9.25;100.00
48364;BME280;34170;54.364;18.582;2024-02-23T04:41:55;97621.69;;;9.03;100.00
48364;BME280;34170;54.364;18.582;2024-02-23T04:44:23;97630.56;;;8.96;100.00
48364;BME280;34170;54.364;18.582;2024-02-23T04:46:50;97626.84;;;8.97;100.00
48364;BME280;34170;54.364;18.582;2024-02-23T04:49:18;97640.00;;;9.47;100.00
48364;BME280;34170;54.364;18.582;2024-02-23T04:51:46;97639.00;;;9.68;100.00
48364;BME280;34170;54.364;18.582;2024-02-23T04:54:14;97650.13;;;9.65;100.00
48364;BME280;34170;54.364;18.582;2024-02-23T04:56:41;97648.50;;;9.71;100.00
48364;BME280;34170;54.364;18.582;2024-02-23T04:59:09;97651.38;;;9.56;100.00
48364;BME280;34170;54.364;18.582;2024-02-23T05:01:37;97657.81;;;9.75;100.00
48364;BME280;34170;54.364;18.582;2024-02-23T05:04:05;97655.72;;;9.64;100.00
48364;BME280;34170;54.364;18.582;2024-02-23T05:06:32;97652.34;;;9.35;100.00
48364;BME280;34170;54.364;18.582;2024-02-23T05:09:01;97655.97;;;10.02;100.00
48364;BME280;34170;54.364;18.582;2024-02-23T05:11:28;97660.09;;;9.85;100.00
48364;BME280;34170;54.364;18.582;2024-02-23T05:13:56;97679.34;;;9.33;100.00
48364;BME280;34170;54.364;18.582;2024-02-23T05:16:24;97674.91;;;9.67;100.00
48364;BME280;34170;54.364;18.582;2024-02-23T05:18:52;97682.78;;;9.62;100.00
48364;BME280;34170;54.364;18.582;2024-02-23T05:21:19;97680.09;;;9.76;100.00
48364;BME280;34170;54.364;18.582;2024-02-23T05:23:47;97674.56;;;10.10;100.00
48364;BME280;34170;54.364;18.582;2024-02-23T05:26:15;97674.97;;;10.07;100.00
48364;BME280;34170;54.364;18.582;2024-02-23T05:28:43;97683.84;;;10.01;100.00
48364;BME280;34170;54.364;18.582;2024-02-23T05:31:10;97690.25;;;10.00;100.00
48364;BME280;34170;54.364;18.582;2024-02-23T05:33:38;97692.94;;;10.14;100.00
48364;BME280;34170;54.364;18.582;2024-02-23T05:36:06;97692.78;;;10.35;100.00
48364;BME280;34170;54.364;18.582;2024-02-23T05:38:34;97694.19;;;10.04;100.00
48364;BME280;34170;54.364;18.582;2024-02-23T05:41:02;97701.63;;;10.16;100.00
48364;BME280;34170;54.364;18.582;2024-02-23T05:43:30;97698.47;;;9.85;100.00
48364;BME280;34170;54.364;18.582;2024-02-23T05:45:57;97708.25;;;10.20;100.00
48364;BME280;34170;54.364;18.582;2024-02-23T05:48:26;97730.00;;;10.52;100.00
48364;BME280;34170;54.364;18.582;2024-02-23T05:50:54;97724.38;;;10.53;100.00
48364;BME280;34170;54.364;18.582;2024-02-23T05:53:21;97734.06;;;10.21;100.00
48364;BME280;34170;54.364;18.582;2024-02-23T05:55:49;97736.53;;;10.16;100.00
48364;BME280;34170;54.364;18.582;2024-02-23T05:58:17;97732.22;;;10.21;100.00
48364;BME280;34170;54.364;18.582;2024-02-23T06:00:44;97730.59;;;10.54;100.00
48364;BME280;34170;54.364;18.582;2024-02-23T06:03:12;97734.06;;;10.14;100.00
48364;BME280;34170;54.364;18.582;2024-02-23T06:05:40;97737.97;;;10.11;100.00
48364;BME280;34170;54.364;18.582;2024-02-23T06:08:08;97736.34;;;10.10;100.00
48364;BME280;34170;54.364;18.582;2024-02-23T06:10:35;97744.00;;;10.34;100.00
48364;BME280;34170;54.364;18.582;2024-02-23T06:13:05;97739.84;;;10.24;100.00
48364;BME280;34170;54.364;18.582;2024-02-23T06:15:32;97746.25;;;10.17;100.00
48364;BME280;34170;54.364;18.582;2024-02-23T06:18:00;97741.75;;;10.44;100.00
48364;BME280;34170;54.364;18.582;2024-02-23T06:20:27;97753.88;;;10.13;100.00
48364;BME280;34170;54.364;18.582;2024-02-23T06:22:55;97766.22;;;9.94;100.00
48364;BME280;34170;54.364;18.582;2024-02-23T06:25:23;97756.22;;;10.63;100.00
48364;BME280;34170;54.364;18.582;2024-02-23T06:27:51;97776.88;;;10.49;100.00
48364;BME280;34170;54.364;18.582;2024-02-23T06:30:18;97780.19;;;10.91;100.00
48364;BME280;34170;54.364;18.582;2024-02-23T06:32:46;97791.53;;;11.06;100.00
48364;BME280;34170;54.364;18.582;2024-02-23T06:35:14;97783.47;;;11.00;100.00
48364;BME280;34170;54.364;18.582;2024-02-23T06:37:42;97791.75;;;11.18;100.00
48364;BME280;34170;54.364;18.582;2024-02-23T06:40:09;97800.88;;;10.64;100.00
48364;BME280;34170;54.364;18.582;2024-02-23T06:42:37;97804.38;;;11.11;100.00
48364;BME280;34170;54.364;18.582;2024-02-23T06:45:05;97800.66;;;10.99;100.00
48364;BME280;34170;54.364;18.582;2024-02-23T06:47:33;97814.28;;;11.31;100.00
48364;BME280;34170;54.364;18.582;2024-02-23T06:50:01;97820.09;;;11.14;100.00
48364;BME280;34170;54.364;18.582;2024-02-23T06:52:31;97826.25;;;11.28;100.00
48364;BME280;34170;54.364;18.582;2024-02-23T06:54:59;97839.09;;;11.26;100.00
48364;BME280;34170;54.364;18.582;2024-02-23T06:57:27;97853.94;;;11.55;100.00
48364;BME280;34170;54.364;18.582;2024-02-23T06:59:54;97860.53;;;11.73;100.00
48364;BME280;34170;54.364;18.582;2024-02-23T07:02:22;97865.09;;;11.66;100.00
48364;BME280;34170;54.364;18.582;2024-02-23T07:04:50;97875.41;;;11.82;100.00
48364;BME280;34170;54.364;18.582;2024-02-23T07:07:17;97874.63;;;11.68;100.00
48364;BME280;34170;54.364;18.582;2024-02-23T07:09:45;97881.09;;;11.54;100.00
48364;BME280;34170;54.364;18.582;2024-02-23T07:12:13;97879.00;;;11.62;100.00
48364;BME280;34170;54.364;18.582;2024-02-23T07:14:41;97877.34;;;11.61;100.00
48364;BME280;34170;54.364;18.582;2024-02-23T07:17:09;97895.75;;;11.64;100.00
48364;BME280;34170;54.364;18.582;2024-02-23T07:19:37;97901.72;;;11.93;100.00
48364;BME280;34170;54.364;18.582;2024-02-23T07:22:05;97909.84;;;11.60;100.00
48364;BME280;34170;54.364;18.582;2024-02-23T07:24:32;97908.34;;;11.97;100.00
48364;BME280;34170;54.364;18.582;2024-02-23T07:27:00;97907.31;;;11.92;100.00
48364;BME280;34170;54.364;18.582;2024-02-23T07:29:28;97907.31;;;11.98;100.00
48364;BME280;34170;54.364;18.582;2024-02-23T07:31:56;97913.63;;;12.17;100.00
48364;BME280;34170;54.364;18.582;2024-02-23T07:34:23;97920.50;;;12.20;100.00
48364;BME280;34170;54.364;18.582;2024-02-23T07:36:52;97930.13;;;12.41;100.00
48364;BME280;34170;54.364;18.582;2024-02-23T07:39:20;97927.09;;;12.17;100.00
48364;BME280;34170;54.364;18.582;2024-02-23T07:41:49;97931.50;;;12.12;100.00
48364;BME280;34170;54.364;18.582;2024-02-23T07:44:17;97937.06;;;12.24;100.00
48364;BME280;34170;54.364;18.582;2024-02-23T07:46:45;97937.88;;;12.24;100.00
48364;BME280;34170;54.364;18.582;2024-02-23T07:49:12;97934.50;;;12.35;100.00
48364;BME280;34170;54.364;18.582;2024-02-23T07:51:40;97953.13;;;12.50;100.00
48364;BME280;34170;54.364;18.582;2024-02-23T07:54:08;97957.72;;;12.36;100.00
48364;BME280;34170;54.364;18.582;2024-02-23T07:56:36;97963.06;;;12.50;100.00
48364;BME280;34170;54.364;18.582;2024-02-23T07:59:03;97966.22;;;12.40;100.00
48364;BME280;34170;54.364;18.582;2024-02-23T08:01:31;97969.31;;;12.44;100.00
48364;BME280;34170;54.364;18.582;2024-02-23T08:03:59;97972.63;;;12.46;100.00
48364;BME280;34170;54.364;18.582;2024-02-23T08:06:27;97985.06;;;12.47;100.00
48364;BME280;34170;54.364;18.582;2024-02-23T08:08:54;97982.50;;;12.58;100.00
48364;BME280;34170;54.364;18.582;2024-02-23T08:11:22;97996.50;;;12.35;100.00
48364;BME280;34170;54.364;18.582;2024-02-23T08:13:50;98006.94;;;12.12;100.00
48364;BME280;34170;54.364;18.582;2024-02-23T08:16:18;98012.25;;;12.38;100.00
48364;BME280;34170;54.364;18.582;2024-02-23T08:18:46;98012.31;;;12.12;100.00
48364;BME280;34170;54.364;18.582;2024-02-23T08:21:14;98014.19;;;11.85;100.00
48364;BME280;34170;54.364;18.582;2024-02-23T08:23:41;98032.34;;;12.43;99.34
48364;BME280;34170;54.364;18.582;2024-02-23T08:26:09;98036.09;;;12.28;99.39
48364;BME280;34170;54.364;18.582;2024-02-23T08:28:37;98042.31;;;12.35;98.78
48364;BME280;34170;54.364;18.582;2024-02-23T08:31:05;98052.41;;;12.53;96.94
48364;BME280;34170;54.364;18.582;2024-02-23T08:33:33;98051.19;;;12.49;96.97
48364;BME280;34170;54.364;18.582;2024-02-23T08:36:01;98051.41;;;12.48;95.54
48364;BME280;34170;54.364;18.582;2024-02-23T08:38:28;98052.22;;;12.48;93.55
48364;BME280;34170;54.364;18.582;2024-02-23T08:40:56;98049.03;;;12.71;93.24
48364;BME280;34170;54.364;18.582;2024-02-23T08:43:24;98044.38;;;12.33;94.31
48364;BME280;34170;54.364;18.582;2024-02-23T08:45:52;98052.19;;;12.62;91.67
48364;BME280;34170;54.364;18.582;2024-02-23T08:48:19;98070.78;;;12.83;91.29
48364;BME280;34170;54.364;18.582;2024-02-23T08:50:48;98086.06;;;12.96;90.18
48364;BME280;34170;54.364;18.582;2024-02-23T08:53:15;98091.41;;;12.57;89.94
48364;BME280;34170;54.364;18.582;2024-02-23T08:55:43;98097.13;;;12.81;88.40
48364;BME280;34170;54.364;18.582;2024-02-23T08:58:12;98088.66;;;12.64;88.02
48364;BME280;34170;54.364;18.582;2024-02-23T09:00:40;98108.41;;;12.58;87.19
48364;BME280;34170;54.364;18.582;2024-02-23T09:03:07;98120.41;;;12.55;86.96
48364;BME280;34170;54.364;18.582;2024-02-23T09:05:35;98131.44;;;12.40;85.41
48364;BME280;34170;54.364;18.582;2024-02-23T09:08:03;98130.56;;;12.73;85.37
48364;BME280;34170;54.364;18.582;2024-02-23T09:10:31;98132.22;;;12.68;83.73
48364;BME280;34170;54.364;18.582;2024-02-23T09:12:59;98138.06;;;12.65;82.75
48364;BME280;34170;54.364;18.582;2024-02-23T09:15:26;98153.81;;;12.61;82.95
48364;BME280;34170;54.364;18.582;2024-02-23T09:17:54;98158.63;;;12.32;84.36
48364;BME280;34170;54.364;18.582;2024-02-23T09:20:22;98156.75;;;12.19;82.33
48364;BME280;34170;54.364;18.582;2024-02-23T09:22:49;98173.53;;;12.28;80.19
48364;BME280;34170;54.364;18.582;2024-02-23T09:25:18;98170.41;;;12.58;78.51
48364;BME280;34170;54.364;18.582;2024-02-23T09:27:46;98178.09;;;12.54;75.25
48364;BME280;34170;54.364;18.582;2024-02-23T09:30:14;98190.72;;;12.81;75.16
48364;BME280;34170;54.364;18.582;2024-02-23T09:32:42;98201.72;;;12.79;74.86
48364;BME280;34170;54.364;18.582;2024-02-23T09:35:13;98202.34;;;12.48;73.49
48364;BME280;34170;54.364;18.582;2024-02-23T09:37:41;98206.09;;;12.60;72.23
48364;BME280;34170;54.364;18.582;2024-02-23T09:40:09;98197.50;;;12.96;68.76
48364;BME280;34170;54.364;18.582;2024-02-23T09:42:38;98209.28;;;13.15;66.44
48364;BME280;34170;54.364;18.582;2024-02-23T09:45:07;98198.44;;;13.35;64.90
48364;BME280;34170;54.364;18.582;2024-02-23T09:47:36;98206.72;;;13.47;64.28
48364;BME280;34170;54.364;18.582;2024-02-23T09:50:05;98197.72;;;13.53;62.55
48364;BME280;34170;54.364;18.582;2024-02-23T09:52:33;98221.31;;;13.20;61.03
48364;BME280;34170;54.364;18.582;2024-02-23T09:55:01;98218.31;;;12.69;60.31
48364;BME280;34170;54.364;18.582;2024-02-23T09:57:31;98209.28;;;13.09;59.15
48364;BME280;34170;54.364;18.582;2024-02-23T09:59:58;98220.50;;;13.12;59.52
48364;BME280;34170;54.364;18.582;2024-02-23T10:02:26;98235.50;;;12.88;58.76
48364;BME280;34170;54.364;18.582;2024-02-23T10:04:56;98240.03;;;13.08;57.27
48364;BME280;34170;54.364;18.582;2024-02-23T10:07:24;98245.06;;;12.84;57.91
48364;BME280;34170;54.364;18.582;2024-02-23T10:09:53;98254.38;;;12.88;57.96
48364;BME280;34170;54.364;18.582;2024-02-23T10:12:20;98264.06;;;13.16;58.43
48364;BME280;34170;54.364;18.582;2024-02-23T10:14:48;98262.25;;;13.03;58.28
48364;BME280;34170;54.364;18.582;2024-02-23T10:17:16;98284.44;;;13.05;56.72
48364;BME280;34170;54.364;18.582;2024-02-23T10:19:44;98286.50;;;13.16;56.17
48364;BME280;34170;54.364;18.582;2024-02-23T10:22:12;98292.97;;;12.95;54.93
48364;BME280;34170;54.364;18.582;2024-02-23T10:24:42;98311.41;;;13.19;54.79
48364;BME280;34170;54.364;18.582;2024-02-23T10:27:10;98309.78;;;13.04;55.24
48364;BME280;34170;54.364;18.582;2024-02-23T10:29:38;98325.97;;;13.04;55.30
48364;BME280;34170;54.364;18.582;2024-02-23T10:32:06;98323.88;;;13.00;54.54
48364;BME280;34170;54.364;18.582;2024-02-23T10:34:36;98341.53;;;12.75;55.70
48364;BME280;34170;54.364;18.582;2024-02-23T10:37:11;98344.66;;;12.92;54.36
48364;BME280;34170;54.364;18.582;2024-02-23T10:39:39;98346.72;;;12.97;54.18
48364;BME280;34170;54.364;18.582;2024-02-23T10:42:09;98358.94;;;13.20;52.71
48364;BME280;34170;54.364;18.582;2024-02-23T10:44:39;98359.38;;;13.16;53.07
48364;BME280;34170;54.364;18.582;2024-02-23T10:47:06;98350.03;;;13.12;52.92
48364;BME280;34170;54.364;18.582;2024-02-23T10:49:36;98352.72;;;13.12;51.42
48364;BME280;34170;54.364;18.582;2024-02-23T10:52:05;98361.19;;;13.63;51.07
48364;BME280;34170;54.364;18.582;2024-02-23T10:54:36;98371.69;;;13.91;50.39
48364;BME280;34170;54.364;18.582;2024-02-23T10:57:03;98369.75;;;14.50;49.44
48364;BME280;34170;54.364;18.582;2024-02-23T10:59:31;98374.31;;;14.49;47.99
48364;BME280;34170;54.364;18.582;2024-02-23T11:02:00;98383.34;;;15.51;46.60
48364;BME280;34170;54.364;18.582;2024-02-23T11:04:29;98381.34;;;14.64;46.97
48364;BME280;34170;54.364;18.582;2024-02-23T11:06:59;98381.88;;;14.41;46.62
48364;BME280;34170;54.364;18.582;2024-02-23T11:09:32;98398.41;;;14.19;47.28
48364;BME280;34170;54.364;18.582;2024-02-23T11:12:03;98390.06;;;13.76;47.83
48364;BME280;34170;54.364;18.582;2024-02-23T11:14:36;98379.44;;;13.74;48.89
48364;BME280;34170;54.364;18.582;2024-02-23T11:17:05;98395.47;;;13.56;48.95
48364;BME280;34170;54.364;18.582;2024-02-23T11:19:39;98390.94;;;13.29;49.41
48364;BME280;34170;54.364;18.582;2024-02-23T11:22:11;98404.03;;;13.39;49.86
48364;BME280;34170;54.364;18.582;2024-02-23T11:24:49;98407.31;;;13.21;50.35
48364;BME280;34170;54.364;18.582;2024-02-23T11:27:24;98419.34;;;13.05;50.21
48364;BME280;34170;54.364;18.582;2024-02-23T11:30:05;98426.22;;;13.28;50.67
48364;BME280;34170;54.364;18.582;2024-02-23T11:32:41;98421.03;;;13.53;50.77
48364;BME280;34170;54.364;18.582;2024-02-23T11:35:11;98414.81;;;13.52;50.54
48364;BME280;34170;54.364;18.582;2024-02-23T11:37:53;98439.09;;;13.79;50.21
48364;BME280;34170;54.364;18.582;2024-02-23T11:40:32;98446.78;;;13.69;50.05
48364;BME280;34170;54.364;18.582;2024-02-23T11:43:01;98445.75;;;13.50;49.92
48364;BME280;34170;54.364;18.582;2024-02-23T11:45:30;98427.47;;;13.52;49.51
48364;BME280;34170;54.364;18.582;2024-02-23T11:47:58;98444.94;;;13.36;50.73
48364;BME280;34170;54.364;18.582;2024-02-23T11:50:27;98446.97;;;13.81;49.77
48364;BME280;34170;54.364;18.582;2024-02-23T11:52:55;98452.94;;;13.96;49.96
48364;BME280;34170;54.364;18.582;2024-02-23T11:55:23;98448.00;;;13.73;50.10
48364;BME280;34170;54.364;18.582;2024-02-23T11:57:51;98460.50;;;13.67;49.83
48364;BME280;34170;54.364;18.582;2024-02-23T12:00:32;98463.50;;;14.18;49.57
48364;BME280;34170;54.364;18.582;2024-02-23T12:02:59;98467.94;;;13.99;48.40
48364;BME280;34170;54.364;18.582;2024-02-23T12:05:27;98466.88;;;14.00;50.59
48364;BME280;34170;54.364;18.582;2024-02-23T12:07:55;98464.56;;;14.17;47.39
48364;BME280;34170;54.364;18.582;2024-02-23T12:10:26;98473.69;;;14.16;48.56
48364;BME280;34170;54.364;18.582;2024-02-23T12:12:54;98478.91;;;14.04;48.47
48364;BME280;34170;54.364;18.582;2024-02-23T12:15:24;98496.59;;;14.13;48.16
48364;BME280;34170;54.364;18.582;2024-02-23T12:17:52;98493.72;;;14.53;48.07
48364;BME280;34170;54.364;18.582;2024-02-23T12:20:21;98494.72;;;14.72;47.12
48364;BME280;34170;54.364;18.582;2024-02-23T12:22:49;98492.25;;;14.57;47.07
48364;BME280;34170;54.364;18.582;2024-02-23T12:25:17;98491.16;;;14.72;47.22
48364;BME280;34170;54.364;18.582;2024-02-23T12:27:45;98512.28;;;14.43;47.58
48364;BME280;34170;54.364;18.582;2024-02-23T12:30:14;98518.34;;;14.38;47.45
48364;BME280;34170;54.364;18.582;2024-02-23T12:32:42;98514.78;;;14.38;47.74
48364;BME280;34170;54.364;18.582;2024-02-23T12:35:11;98515.16;;;14.61;47.64
48364;BME280;34170;54.364;18.582;2024-02-23T12:37:40;98515.19;;;14.41;48.06
48364;BME280;34170;54.364;18.582;2024-02-23T12:40:12;98510.44;;;14.95;47.70
48364;BME280;34170;54.364;18.582;2024-02-23T12:42:40;98508.56;;;14.89;47.49
48364;BME280;34170;54.364;18.582;2024-02-23T12:45:08;98506.94;;;14.23;48.20
48364;BME280;34170;54.364;18.582;2024-02-23T12:47:36;98513.22;;;14.17;48.07
48364;BME280;34170;54.364;18.582;2024-02-23T12:50:04;98524.91;;;14.56;47.55
48364;BME280;34170;54.364;18.582;2024-02-23T12:52:33;98523.56;;;14.20;48.73